createdAt,value
2019-04-16T00:00:52.163Z,9.50
2019-04-16T00:03:23.211Z,9.50
2019-04-16T00:05:58.636Z,9.50
2019-04-16T00:08:41.827Z,9.40
2019-04-16T00:11:12.763Z,9.40
2019-04-16T00:13:43.696Z,9.40
2019-04-16T00:16:13.767Z,9.30
2019-04-16T00:18:56.422Z,9.30
2019-04-16T00:21:32.100Z,9.30
2019-04-16T00:24:19.543Z,9.20
2019-04-16T00:26:49.004Z,9.20
2019-04-16T00:29:18.287Z,9.20
2019-04-16T00:31:49.240Z,9.10
2019-04-16T00:34:18.536Z,9.10
2019-04-16T00:36:48.804Z,9.10
2019-04-16T00:39:18.795Z,9.10
2019-04-16T00:41:48.104Z,9.10
2019-04-16T00:44:17.405Z,9.10
2019-04-16T00:46:46.971Z,9.00
2019-04-16T00:49:16.266Z,9.00
2019-04-16T00:51:45.830Z,9.00
2019-04-16T00:54:15.107Z,8.90
2019-04-16T00:56:46.799Z,8.90
2019-04-16T00:59:15.399Z,8.90
2019-04-16T01:01:45.032Z,8.90
2019-04-16T01:04:14.320Z,8.90
2019-04-16T01:06:43.624Z,8.80
2019-04-16T01:09:13.250Z,8.80
2019-04-16T01:11:42.548Z,8.70
2019-04-16T01:14:11.848Z,8.70
2019-04-16T01:16:41.131Z,8.70
2019-04-16T01:19:11.158Z,8.70
2019-04-16T01:21:44.314Z,8.60
2019-04-16T01:24:11.611Z,8.60
2019-04-16T01:26:40.904Z,8.70
2019-04-16T01:29:11.468Z,8.60
2019-04-16T01:31:58.910Z,8.60
2019-04-16T01:34:47.108Z,8.60
2019-04-16T01:37:32.288Z,8.50
2019-04-16T01:40:06.391Z,8.60
2019-04-16T01:42:36.003Z,8.50
2019-04-16T01:45:07.111Z,8.50
2019-04-16T01:47:37.349Z,8.40
2019-04-16T01:50:07.279Z,8.40
2019-04-16T01:52:36.590Z,8.40
2019-04-16T01:55:06.256Z,8.40
2019-04-16T01:57:35.555Z,8.30
2019-04-16T02:00:08.541Z,8.30
2019-04-16T02:02:38.395Z,8.30
2019-04-16T02:05:08.015Z,8.30
2019-04-16T02:07:37.320Z,8.20
2019-04-16T02:10:07.750Z,8.20
2019-04-16T02:12:37.515Z,8.20
2019-04-16T02:15:08.842Z,8.20
2019-04-16T02:17:38.105Z,8.10
2019-04-16T02:20:07.728Z,8.00
2019-04-16T02:22:37.021Z,8.00
2019-04-16T02:25:06.653Z,8.00
2019-04-16T02:27:35.953Z,8.00
2019-04-16T02:30:05.923Z,7.90
2019-04-16T02:32:35.731Z,7.90
2019-04-16T02:35:06.824Z,7.90
2019-04-16T02:37:37.429Z,7.80
2019-04-16T02:40:07.713Z,7.90
2019-04-16T02:42:36.992Z,7.80
2019-04-16T02:45:06.971Z,7.70
2019-04-16T02:47:41.968Z,7.70
2019-04-16T02:50:09.380Z,7.70
2019-04-16T02:52:56.549Z,7.70
2019-04-16T02:55:27.482Z,7.70
2019-04-16T02:58:07.128Z,7.70
2019-04-16T03:00:40.950Z,7.70
2019-04-16T03:03:14.796Z,7.70
2019-04-16T03:05:45.706Z,7.70
2019-04-16T03:08:14.996Z,7.60
2019-04-16T03:10:44.624Z,7.60
2019-04-16T03:13:14.749Z,7.60
2019-04-16T03:15:45.658Z,7.50
2019-04-16T03:18:16.616Z,7.50
2019-04-16T03:20:45.891Z,7.50
2019-04-16T03:23:15.247Z,7.50
2019-04-16T03:25:45.167Z,7.50
2019-04-16T03:28:14.603Z,7.50
2019-04-16T03:30:43.904Z,7.50
2019-04-16T03:33:15.198Z,7.40
2019-04-16T03:35:44.187Z,7.40
2019-04-16T03:38:13.476Z,7.40
2019-04-16T03:40:42.770Z,7.40
2019-04-16T03:43:12.063Z,7.40
2019-04-16T03:45:41.673Z,7.50
2019-04-16T03:48:11.216Z,7.40
2019-04-16T03:50:40.623Z,7.30
2019-04-16T03:53:09.899Z,7.40
2019-04-16T03:55:39.189Z,7.30
2019-04-16T03:58:08.480Z,7.30
2019-04-16T04:00:43.741Z,7.30
2019-04-16T04:03:08.749Z,7.30
2019-04-16T04:05:38.044Z,7.20
2019-04-16T04:08:07.633Z,7.20
2019-04-16T04:10:37.817Z,7.20
2019-04-16T04:13:07.391Z,7.20
2019-04-16T04:15:36.663Z,7.20
2019-04-16T04:18:08.009Z,7.20
2019-04-16T04:20:36.944Z,7.10
2019-04-16T04:23:06.463Z,7.20
2019-04-16T04:25:36.970Z,7.20
2019-04-16T04:28:06.707Z,7.20
2019-04-16T04:30:35.987Z,7.20
2019-04-16T04:33:08.779Z,7.20
2019-04-16T04:35:36.706Z,7.10
2019-04-16T04:38:05.995Z,7.10
2019-04-16T04:40:44.303Z,7.20
2019-04-16T04:43:06.275Z,7.20
2019-04-16T04:45:37.618Z,7.20
2019-04-16T04:48:06.828Z,7.10
2019-04-16T04:50:36.166Z,7.10
2019-04-16T04:53:05.484Z,7.10
2019-04-16T04:55:34.882Z,7.20
2019-04-16T04:58:04.187Z,7.20
2019-04-16T05:00:33.462Z,7.20
2019-04-16T05:03:02.767Z,7.20
2019-04-16T05:05:33.671Z,7.30
2019-04-16T05:08:02.987Z,7.30
2019-04-16T05:10:32.264Z,7.40
2019-04-16T05:13:01.558Z,7.40
2019-04-16T05:15:30.828Z,7.40
2019-04-16T05:18:00.132Z,7.40
2019-04-16T05:20:29.941Z,7.40
2019-04-16T05:22:59.660Z,7.50
2019-04-16T05:25:33.271Z,7.50
2019-04-16T05:28:00.238Z,7.60
2019-04-16T05:30:29.806Z,7.60
2019-04-16T05:32:59.318Z,7.70
2019-04-16T05:35:28.617Z,7.70
2019-04-16T05:37:57.896Z,7.80
2019-04-16T05:40:27.588Z,7.90
2019-04-16T05:42:58.924Z,7.90
2019-04-16T05:45:28.933Z,8.00
2019-04-16T05:47:58.499Z,8.10
2019-04-16T05:50:29.739Z,8.20
2019-04-16T05:52:58.855Z,8.30
2019-04-16T05:55:38.771Z,8.40
2019-04-16T05:58:08.050Z,8.40
2019-04-16T06:00:41.716Z,8.50
2019-04-16T06:03:09.977Z,8.60
2019-04-16T06:05:39.516Z,8.80
2019-04-16T06:08:10.311Z,9.00
2019-04-16T06:10:40.422Z,9.10
2019-04-16T06:13:29.736Z,9.30
2019-04-16T06:16:12.604Z,9.40
2019-04-16T06:18:46.558Z,9.50
2019-04-16T06:21:25.776Z,9.60
2019-04-16T06:23:56.029Z,9.70
2019-04-16T06:26:26.946Z,9.90
2019-04-16T06:29:00.029Z,10.00
2019-04-16T06:31:30.743Z,10.00
2019-04-16T06:34:04.550Z,10.20
2019-04-16T06:36:44.664Z,10.30
2019-04-16T06:39:21.718Z,10.40
2019-04-16T06:41:55.715Z,10.50
2019-04-16T06:44:29.836Z,10.60
2019-04-16T06:47:10.530Z,10.70
2019-04-16T06:49:43.833Z,10.80
2019-04-16T06:52:16.633Z,10.90
2019-04-16T06:54:56.826Z,11.00
2019-04-16T06:57:45.935Z,11.00
2019-04-16T07:00:33.894Z,11.10
2019-04-16T07:03:17.735Z,11.30
2019-04-16T07:05:57.902Z,11.30
2019-04-16T07:08:41.935Z,11.40
2019-04-16T07:11:16.043Z,11.50
2019-04-16T07:13:45.328Z,11.60
2019-04-16T07:16:14.987Z,11.70
2019-04-16T07:18:44.271Z,11.90
2019-04-16T07:21:14.488Z,12.20
2019-04-16T07:23:46.438Z,12.10
2019-04-16T07:26:15.712Z,12.30
2019-04-16T07:28:49.692Z,12.40
2019-04-16T07:31:32.558Z,12.60
2019-04-16T07:34:05.183Z,12.70
2019-04-16T07:36:36.427Z,12.70
2019-04-16T07:39:13.527Z,12.60
2019-04-16T07:42:09.401Z,12.60
2019-04-16T07:44:39.389Z,12.40
2019-04-16T07:47:25.451Z,12.60
2019-04-16T07:50:05.000Z,12.70
2019-04-16T07:52:42.620Z,12.80
2019-04-16T07:55:23.646Z,13.00
2019-04-16T07:57:54.001Z,13.30
2019-04-16T08:00:23.735Z,13.40
2019-04-16T08:02:53.839Z,13.40
2019-04-16T08:05:23.996Z,13.50
2019-04-16T08:07:53.790Z,13.60
2019-04-16T08:10:23.331Z,13.80
2019-04-16T08:12:57.203Z,14.00
2019-04-16T08:15:25.267Z,14.20
2019-04-16T08:17:54.843Z,14.30
2019-04-16T08:20:24.131Z,14.40
2019-04-16T08:22:55.070Z,14.50
2019-04-16T08:25:25.998Z,14.70
2019-04-16T08:27:55.367Z,14.80
2019-04-16T08:30:24.928Z,15.10
2019-04-16T08:32:54.231Z,15.30
2019-04-16T08:35:23.535Z,15.20
2019-04-16T08:37:53.144Z,15.40
2019-04-16T08:40:22.466Z,15.50
2019-04-16T08:42:54.404Z,15.70
2019-04-16T08:45:22.727Z,15.60
2019-04-16T08:47:52.285Z,15.80
2019-04-16T08:50:25.845Z,16.00
2019-04-16T08:52:52.581Z,16.00
2019-04-16T08:55:23.659Z,15.90
2019-04-16T08:57:52.875Z,15.90
2019-04-16T09:00:22.480Z,16.20
2019-04-16T09:02:51.759Z,16.50
2019-04-16T09:05:21.058Z,16.50
2019-04-16T09:07:51.583Z,16.70
2019-04-16T09:10:30.026Z,16.60
2019-04-16T09:13:04.028Z,16.60
2019-04-16T09:15:36.967Z,16.60
2019-04-16T09:18:13.866Z,16.60
2019-04-16T09:20:44.224Z,16.20
2019-04-16T09:23:13.538Z,16.10
2019-04-16T09:25:45.926Z,16.10
2019-04-16T09:28:25.143Z,16.30
2019-04-16T09:31:05.013Z,16.50
2019-04-16T09:33:36.225Z,16.80
2019-04-16T09:36:07.151Z,17.20
2019-04-16T09:38:47.320Z,17.80
2019-04-16T09:41:30.150Z,18.00
2019-04-16T09:44:02.612Z,18.10
2019-04-16T09:46:50.278Z,18.60
2019-04-16T09:49:04.954Z,19.00
2019-04-16T09:51:33.887Z,19.30
2019-04-16T09:54:03.179Z,19.40
2019-04-16T09:56:32.803Z,19.40
2019-04-16T09:59:04.558Z,19.60
2019-04-16T10:01:35.513Z,19.80
2019-04-16T10:04:06.443Z,19.90
2019-04-16T10:06:35.808Z,19.90
2019-04-16T10:09:06.955Z,20.10
2019-04-16T10:11:36.482Z,20.00
2019-04-16T10:14:06.203Z,20.20
2019-04-16T10:16:35.513Z,20.40
2019-04-16T10:19:07.866Z,20.80
2019-04-16T10:21:35.850Z,21.10
2019-04-16T10:24:15.592Z,21.30
2019-04-16T10:26:46.545Z,21.60
2019-04-16T10:29:17.550Z,21.70
2019-04-16T10:31:47.013Z,21.40
2019-04-16T10:34:16.314Z,21.40
2019-04-16T10:36:45.603Z,21.40
2019-04-16T10:39:19.232Z,21.60
2019-04-16T10:41:59.127Z,21.60
2019-04-16T10:44:36.269Z,21.90
2019-04-16T10:47:23.597Z,22.10
2019-04-16T10:49:57.190Z,22.20
2019-04-16T10:52:30.851Z,22.30
2019-04-16T10:55:09.422Z,22.40
2019-04-16T10:57:42.861Z,22.30
2019-04-16T11:00:30.379Z,22.20
2019-04-16T11:03:07.445Z,21.90
2019-04-16T11:05:56.779Z,21.60
2019-04-16T11:08:24.703Z,21.60
2019-04-16T11:10:54.046Z,21.30
2019-04-16T11:13:27.975Z,21.50
2019-04-16T11:15:59.155Z,21.90
2019-04-16T11:18:28.800Z,22.10
2019-04-16T11:20:58.130Z,22.10
2019-04-16T11:23:27.673Z,22.20
2019-04-16T11:25:57.286Z,22.10
2019-04-16T11:28:26.577Z,22.00
2019-04-16T11:30:57.545Z,21.90
2019-04-16T11:33:27.629Z,22.20
2019-04-16T11:35:57.133Z,22.30
2019-04-16T11:38:26.420Z,22.70
2019-04-16T11:40:55.714Z,23.00
2019-04-16T11:43:25.050Z,23.30
2019-04-16T11:45:54.687Z,23.30
2019-04-16T11:48:24.259Z,23.30
2019-04-16T11:50:53.595Z,23.10
2019-04-16T11:53:22.856Z,23.50
2019-04-16T11:55:52.155Z,23.60
2019-04-16T11:58:25.745Z,24.00
2019-04-16T12:00:59.659Z,24.10
2019-04-16T12:03:34.769Z,24.20
2019-04-16T12:06:27.401Z,24.40
2019-04-16T12:08:47.988Z,24.40
2019-04-16T12:11:18.960Z,24.10
2019-04-16T12:13:52.363Z,24.50
2019-04-16T12:16:26.226Z,24.90
2019-04-16T12:19:00.415Z,24.60
2019-04-16T12:21:37.426Z,24.50
2019-04-16T12:24:08.677Z,24.30
2019-04-16T12:26:51.695Z,24.80
2019-04-16T12:29:25.401Z,25.00
2019-04-16T12:31:56.339Z,25.20
2019-04-16T12:34:27.315Z,25.40
2019-04-16T12:36:58.284Z,25.60
2019-04-16T12:39:36.022Z,24.80
2019-04-16T12:42:07.407Z,24.30
2019-04-16T12:44:45.634Z,24.10
2019-04-16T12:47:11.578Z,24.70
2019-04-16T12:49:42.526Z,24.80
2019-04-16T12:52:17.511Z,24.90
2019-04-16T12:54:58.314Z,24.70
2019-04-16T12:57:32.842Z,24.60
2019-04-16T13:00:14.529Z,24.80
2019-04-16T13:02:54.354Z,23.90
2019-04-16T13:05:25.278Z,24.10
2019-04-16T13:07:58.850Z,24.80
2019-04-16T13:10:35.512Z,25.10
2019-04-16T13:13:15.592Z,25.00
2019-04-16T13:15:46.519Z,24.90
2019-04-16T13:18:23.172Z,25.00
2019-04-16T13:21:10.291Z,24.50
2019-04-16T13:23:47.343Z,24.60
2019-04-16T13:26:18.351Z,25.00
2019-04-16T13:28:47.639Z,25.20
2019-04-16T13:31:16.939Z,25.10
2019-04-16T13:33:46.851Z,24.90
2019-04-16T13:36:16.518Z,24.60
2019-04-16T13:38:50.735Z,24.20
2019-04-16T13:41:20.036Z,24.00
2019-04-16T13:43:50.954Z,23.20
2019-04-16T13:46:20.487Z,22.80
2019-04-16T13:48:51.411Z,22.30
2019-04-16T13:51:22.672Z,22.20
2019-04-16T13:54:11.916Z,22.00
2019-04-16T13:56:42.854Z,21.90
2019-04-16T13:59:31.174Z,21.40
2019-04-16T14:02:04.923Z,20.90
2019-04-16T14:04:36.949Z,20.70
2019-04-16T14:07:05.203Z,20.30
2019-04-16T14:09:34.780Z,20.10
2019-04-16T14:12:04.342Z,20.10
2019-04-16T14:14:33.639Z,20.30
2019-04-16T14:17:10.018Z,20.40
2019-04-16T14:19:34.830Z,20.50
2019-04-16T14:22:05.585Z,20.70
2019-04-16T14:24:34.867Z,21.00
2019-04-16T14:27:04.404Z,21.10
2019-04-16T14:29:35.873Z,21.20
2019-04-16T14:32:04.961Z,21.50
2019-04-16T14:34:44.690Z,21.90
2019-04-16T14:37:14.296Z,22.30
2019-04-16T14:39:45.219Z,22.80
2019-04-16T14:42:14.582Z,23.40
2019-04-16T14:44:54.484Z,23.50
2019-04-16T14:47:23.768Z,23.10
2019-04-16T14:49:53.389Z,22.70
2019-04-16T14:52:22.670Z,22.60
2019-04-16T14:55:10.114Z,22.80
2019-04-16T14:57:57.423Z,23.20
2019-04-16T15:00:28.366Z,23.00
2019-04-16T15:03:08.024Z,22.70
2019-04-16T15:05:38.966Z,22.60
2019-04-16T15:08:15.571Z,22.80
2019-04-16T15:10:46.512Z,22.90
2019-04-16T15:13:17.463Z,22.90
2019-04-16T15:15:48.387Z,23.20
2019-04-16T15:18:37.370Z,23.30
2019-04-16T15:21:23.134Z,23.40
2019-04-16T15:24:06.126Z,23.60
2019-04-16T15:26:39.739Z,23.70
2019-04-16T15:29:10.668Z,23.80
2019-04-16T15:31:44.500Z,23.60
2019-04-16T15:34:15.449Z,23.40
2019-04-16T15:36:49.900Z,23.10
2019-04-16T15:39:19.025Z,22.70
2019-04-16T15:41:59.135Z,22.50
2019-04-16T15:44:32.126Z,22.10
2019-04-16T15:47:13.256Z,21.80
2019-04-16T15:49:49.533Z,21.60
2019-04-16T15:52:36.279Z,21.60
2019-04-16T15:55:24.544Z,21.70
2019-04-16T15:58:01.390Z,21.40
2019-04-16T16:00:36.687Z,21.10
2019-04-16T16:03:13.871Z,20.90
2019-04-16T16:05:44.805Z,20.70
2019-04-16T16:08:16.060Z,20.80
2019-04-16T16:10:46.996Z,20.60
2019-04-16T16:13:16.599Z,20.40
2019-04-16T16:15:45.912Z,20.30
2019-04-16T16:18:15.210Z,20.30
2019-04-16T16:20:44.576Z,20.20
2019-04-16T16:23:13.850Z,20.10
2019-04-16T16:25:43.408Z,20.00
2019-04-16T16:28:12.714Z,19.80
2019-04-16T16:30:42.324Z,19.90
2019-04-16T16:33:11.639Z,19.80
2019-04-16T16:35:56.571Z,19.70
2019-04-16T16:38:14.109Z,19.70
2019-04-16T16:40:43.223Z,19.60
2019-04-16T16:43:14.293Z,19.70
2019-04-16T16:46:02.191Z,19.60
2019-04-16T16:48:31.559Z,19.50
2019-04-16T16:51:01.097Z,19.50
2019-04-16T16:53:44.050Z,19.30
2019-04-16T16:56:24.495Z,19.20
2019-04-16T16:58:56.388Z,19.20
2019-04-16T17:01:33.571Z,19.10
2019-04-16T17:04:05.445Z,19.00
2019-04-16T17:06:35.000Z,18.90
2019-04-16T17:09:06.763Z,18.70
2019-04-16T17:11:36.034Z,18.60
2019-04-16T17:14:05.519Z,18.50
2019-04-16T17:16:34.863Z,18.50
2019-04-16T17:19:04.206Z,18.40
2019-04-16T17:21:33.494Z,18.30
2019-04-16T17:24:02.775Z,18.20
2019-04-16T17:26:32.371Z,18.20
2019-04-16T17:29:01.660Z,18.20
2019-04-16T17:31:30.955Z,18.00
2019-04-16T17:34:00.244Z,17.90
2019-04-16T17:36:29.518Z,18.00
2019-04-16T17:38:59.189Z,17.90
2019-04-16T17:41:30.111Z,17.90
2019-04-16T17:44:10.584Z,17.80
2019-04-16T17:46:44.540Z,17.80
2019-04-16T17:49:21.616Z,17.70
2019-04-16T17:51:58.804Z,17.70
2019-04-16T17:54:29.759Z,17.50
2019-04-16T17:57:00.782Z,17.40
2019-04-16T17:59:48.036Z,17.20
2019-04-16T18:02:35.428Z,17.00
2019-04-16T18:05:15.744Z,16.80
2019-04-16T18:07:46.664Z,16.50
2019-04-16T18:10:17.595Z,16.40
2019-04-16T18:12:56.464Z,16.30
2019-04-16T18:15:27.114Z,16.20
2019-04-16T18:18:06.575Z,16.00
2019-04-16T18:20:40.190Z,15.90
2019-04-16T18:23:14.168Z,15.80
2019-04-16T18:25:56.574Z,15.70
2019-04-16T18:28:29.729Z,15.60
2019-04-16T18:31:00.659Z,15.60
2019-04-16T18:33:34.707Z,15.50
2019-04-16T18:36:17.056Z,15.50
2019-04-16T18:39:03.222Z,15.30
2019-04-16T18:41:29.264Z,15.30
2019-04-16T18:44:15.031Z,15.20
2019-04-16T18:46:51.940Z,15.10
2019-04-16T18:49:25.799Z,15.10
2019-04-16T18:51:55.111Z,15.10
2019-04-16T18:54:24.393Z,15.00
2019-04-16T18:56:53.687Z,15.00
2019-04-16T18:59:22.974Z,15.00
2019-04-16T19:02:00.371Z,14.90
2019-04-16T19:04:29.671Z,14.90
2019-04-16T19:06:58.943Z,14.80
2019-04-16T19:09:28.235Z,14.80
2019-04-16T19:11:57.515Z,14.70
2019-04-16T19:14:26.812Z,14.70
2019-04-16T19:16:56.386Z,14.70
2019-04-16T19:19:25.775Z,14.70
2019-04-16T19:21:58.541Z,14.70
2019-04-16T19:24:27.877Z,14.70
2019-04-16T19:26:57.164Z,14.70
2019-04-16T19:29:26.476Z,14.60
2019-04-16T19:31:57.345Z,14.60
2019-04-16T19:34:27.181Z,14.60
2019-04-16T19:37:00.177Z,14.60
2019-04-16T19:39:27.479Z,14.60
2019-04-16T19:41:58.133Z,14.50
2019-04-16T19:44:27.576Z,14.50
2019-04-16T19:46:56.879Z,14.50
2019-04-16T19:49:26.183Z,14.50
2019-04-16T19:51:55.737Z,14.50
2019-04-16T19:54:25.019Z,14.40
2019-04-16T19:56:54.315Z,14.40
2019-04-16T19:59:23.587Z,14.40
2019-04-16T20:01:55.810Z,14.40
2019-04-16T20:04:23.846Z,14.30
2019-04-16T20:06:53.151Z,14.20
2019-04-16T20:09:22.428Z,14.10
2019-04-16T20:11:54.729Z,14.10
2019-04-16T20:14:22.698Z,14.00
2019-04-16T20:16:52.213Z,14.00
2019-04-16T20:19:21.498Z,13.90
2019-04-16T20:21:50.792Z,13.90
2019-04-16T20:24:20.084Z,13.90
2019-04-16T20:26:49.359Z,13.80
2019-04-16T20:29:18.668Z,13.80
2019-04-16T20:31:47.959Z,13.70
2019-04-16T20:34:18.198Z,13.70
2019-04-16T20:36:47.611Z,13.60
2019-04-16T20:39:16.896Z,13.50
2019-04-16T20:41:52.792Z,13.50
2019-04-16T20:44:19.051Z,13.50
2019-04-16T20:46:48.354Z,13.50
2019-04-16T20:49:17.635Z,13.40
2019-04-16T20:51:46.935Z,13.40
2019-04-16T20:54:16.227Z,13.30
2019-04-16T20:56:45.518Z,13.30
2019-04-16T20:59:14.814Z,13.40
2019-04-16T21:01:44.091Z,13.40
2019-04-16T21:04:13.381Z,13.30
2019-04-16T21:06:42.650Z,13.30
2019-04-16T21:09:11.980Z,13.20
2019-04-16T21:11:41.871Z,13.20
2019-04-16T21:14:11.464Z,13.20
2019-04-16T21:16:40.734Z,13.20
2019-04-16T21:19:22.200Z,13.10
2019-04-16T21:21:41.331Z,13.10
2019-04-16T21:24:13.531Z,13.00
2019-04-16T21:26:41.692Z,13.10
2019-04-16T21:29:15.600Z,13.30
2019-04-16T21:31:52.479Z,13.40
2019-04-16T21:34:29.923Z,13.50
2019-04-16T21:37:09.052Z,13.50
2019-04-16T21:39:55.301Z,13.50
2019-04-16T21:42:24.692Z,13.30
2019-04-16T21:44:54.247Z,13.20
2019-04-16T21:47:24.505Z,13.00
2019-04-16T21:49:54.218Z,12.90
2019-04-16T21:52:23.945Z,12.90
2019-04-16T21:54:53.437Z,12.80
2019-04-16T21:57:22.859Z,12.80
2019-04-16T21:59:56.660Z,12.80
2019-04-16T22:02:30.780Z,12.80
2019-04-16T22:05:00.288Z,12.80
2019-04-16T22:07:29.622Z,12.80
2019-04-16T22:09:58.903Z,12.80
2019-04-16T22:12:28.431Z,12.70
2019-04-16T22:14:57.730Z,12.80
2019-04-16T22:17:27.019Z,12.80
2019-04-16T22:20:01.475Z,12.80
2019-04-16T22:22:28.129Z,12.80
2019-04-16T22:24:57.767Z,12.80
2019-04-16T22:27:27.056Z,12.80
2019-04-16T22:29:56.391Z,12.80
2019-04-16T22:32:27.007Z,12.80
2019-04-16T22:34:56.683Z,12.80
2019-04-16T22:37:25.984Z,12.90
2019-04-16T22:39:56.923Z,12.80
2019-04-16T22:42:31.307Z,12.80
2019-04-16T22:45:02.548Z,12.80
2019-04-16T22:47:36.388Z,12.80
2019-04-16T22:50:16.398Z,12.80
2019-04-16T22:52:37.395Z,12.80
2019-04-16T22:55:06.801Z,12.80
2019-04-16T22:57:36.149Z,12.70
2019-04-16T23:00:12.000Z,12.70
2019-04-16T23:02:38.594Z,12.70
2019-04-16T23:05:07.875Z,12.70
2019-04-16T23:07:39.709Z,12.70
2019-04-16T23:10:08.564Z,12.70
2019-04-16T23:12:37.860Z,12.80
2019-04-16T23:15:09.449Z,12.80
2019-04-16T23:17:38.789Z,12.70
2019-04-16T23:20:08.442Z,12.60
2019-04-16T23:22:37.728Z,12.60
2019-04-16T23:25:07.015Z,12.70
2019-04-16T23:27:37.504Z,12.80
2019-04-16T23:30:08.952Z,12.70
2019-04-16T23:32:38.295Z,12.80
2019-04-16T23:35:10.981Z,12.80
2019-04-16T23:37:38.563Z,12.80
2019-04-16T23:40:10.786Z,12.80
2019-04-16T23:42:41.189Z,12.90
2019-04-16T23:45:24.280Z,12.90
2019-04-16T23:47:58.179Z,12.90
2019-04-16T23:50:43.782Z,12.90
2019-04-16T23:53:08.998Z,12.90
2019-04-16T23:55:56.783Z,12.90
2019-04-16T23:58:28.563Z,13.00
